KJES

Jesup-Wayne County Airport

Jesup, Georgia, USA
METAR KJES 140716Z AUTO 00000KT 2SM DZ OVC003 16/15 A3009 RMK AO2
Observed Flight Rules
Dec-14 @ 07:16 UTC (25 minutes ago) Instrument Flight Rules
Visibility Clouds Conditions
2 miles
  • Overcast at 300' AGL
  • Drizzle
Temperatures Readings
Current 16°C / 61°F
Dewpoint 15°C / 59°F
Humidity 94%
Altimeter 30.09" Hg
Pressure 1019 hPa
Elevation 33
METAR KJES 140716Z AUTO 00000KT 2SM DZ OVC003 16/15 A3009 RMK AO2
Observed Flight Rules
Dec-14 @ 07:16 UTC
(25 minutes ago)
LIFR
Clouds
  • Overcast at 300' AGL
Conditions
  • Drizzle
Temperature Dewpoint
16°C / 61°F 15°C / 59°F
Humidity Altimeter Pressure
94% 30.09" Hg 1019 hPa